createdAt,value
2023-04-16T00:03:00.058Z,10
2023-04-16T00:07:59.749Z,10
2023-04-16T00:12:59.747Z,10
2023-04-16T00:18:10.017Z,10.1
2023-04-16T00:23:59.766Z,9.8
2023-04-16T00:29:10.274Z,9.8
2023-04-16T00:34:10.055Z,9.8
2023-04-16T00:39:59.728Z,9.9
2023-04-16T00:44:59.766Z,9.8
2023-04-16T00:50:09.997Z,9.8
2023-04-16T00:55:10.025Z,9.9
2023-04-16T01:00:59.761Z,9.9
2023-04-16T01:06:10.028Z,9.8
2023-04-16T01:11:59.754Z,9.9
2023-04-16T01:17:10.030Z,9.8
2023-04-16T01:22:59.751Z,9.8
2023-04-16T01:27:59.820Z,9.7
2023-04-16T01:33:10.018Z,9.6
2023-04-16T01:38:59.755Z,9.5
2023-04-16T01:44:10.059Z,9.6
2023-04-16T01:49:59.756Z,9.7
2023-04-16T01:54:59.852Z,9.7
2023-04-16T02:00:10.027Z,9.9
2023-04-16T02:05:59.769Z,9.8
2023-04-16T02:11:10.064Z,9.8
2023-04-16T02:16:10.045Z,10
2023-04-16T02:21:59.766Z,9.7
2023-04-16T02:27:10.014Z,9.8
2023-04-16T02:32:59.827Z,9.8
2023-04-16T02:38:10.018Z,9.7
2023-04-16T02:43:10.044Z,9.9
2023-04-16T02:48:59.747Z,9.8
2023-04-16T02:53:59.769Z,9.9
2023-04-16T02:59:10.449Z,9.6
2023-04-16T03:04:59.739Z,9.7
2023-04-16T03:09:59.745Z,9.6
2023-04-16T03:15:10.043Z,9.6
2023-04-16T03:20:59.723Z,9.7
2023-04-16T03:25:59.755Z,9.7
2023-04-16T03:30:59.790Z,9.8
2023-04-16T03:36:10.068Z,9.9
2023-04-16T03:41:10.055Z,10
2023-04-16T03:46:59.758Z,9.9
2023-04-16T03:51:59.828Z,9.9
2023-04-16T03:56:59.763Z,9.9
2023-04-16T04:02:10.113Z,10
2023-04-16T04:07:59.780Z,10.1
2023-04-16T04:12:59.787Z,10
2023-04-16T04:18:10.047Z,10.1
2023-04-16T04:23:10.063Z,10
2023-04-16T04:28:59.737Z,10.1
2023-04-16T04:33:59.761Z,9.9
2023-04-16T04:38:59.789Z,9.9
2023-04-16T04:43:59.791Z,9.7
2023-04-16T04:49:10.346Z,9.8
2023-04-16T04:55:06.025Z,9.8
2023-04-16T05:00:10.065Z,9.9
2023-04-16T05:05:59.766Z,10
2023-04-16T05:11:10.044Z,10
2023-04-16T05:16:20.346Z,10
2023-04-16T05:21:59.761Z,10.1
2023-04-16T05:26:59.773Z,10.1
2023-04-16T05:31:59.811Z,10.1
2023-04-16T05:37:10.064Z,10.2
2023-04-16T05:42:59.759Z,10.1
2023-04-16T05:48:10.045Z,10.1
2023-04-16T05:53:59.777Z,10
2023-04-16T05:59:10.293Z,10
2023-04-16T06:04:10.194Z,9.8
2023-04-16T06:09:59.786Z,10
2023-04-16T06:14:59.785Z,10.1
2023-04-16T06:20:10.048Z,10.1
2023-04-16T06:25:10.127Z,10.3
2023-04-16T06:30:59.738Z,10.3
2023-04-16T06:35:59.763Z,9.9
2023-04-16T06:40:59.772Z,10
2023-04-16T06:46:10.026Z,10.2
2023-04-16T06:51:10.056Z,10.2
2023-04-16T06:56:10.059Z,10.1
2023-04-16T07:01:59.817Z,10.2
2023-04-16T07:06:59.754Z,10.2
2023-04-16T07:11:59.806Z,10.2
2023-04-16T07:17:10.044Z,10.3
2023-04-16T07:22:59.738Z,10.4
2023-04-16T07:27:59.766Z,10.2
2023-04-16T07:33:10.115Z,10.3
2023-04-16T07:38:10.050Z,10.4
2023-04-16T07:43:59.764Z,10.6
2023-04-16T07:48:59.790Z,10.7
2023-04-16T07:54:10.089Z,10.7
2023-04-16T07:59:59.766Z,10.6
2023-04-16T08:04:59.815Z,10.7
2023-04-16T08:09:59.800Z,10.8
2023-04-16T08:15:10.067Z,10.9
2023-04-16T08:20:59.783Z,10.8
2023-04-16T08:26:10.048Z,10.8
2023-04-16T08:31:10.105Z,10.8
2023-04-16T08:36:10.075Z,10.9
2023-04-16T08:41:59.756Z,11
2023-04-16T08:46:59.830Z,11.2
2023-04-16T08:52:10.043Z,11.3
2023-04-16T08:57:10.049Z,11.5
2023-04-16T09:02:10.160Z,11.5
2023-04-16T09:07:10.076Z,11.5
2023-04-16T09:12:59.772Z,11.8
2023-04-16T09:17:59.868Z,11.9
2023-04-16T09:23:10.054Z,12.1
2023-04-16T09:28:10.049Z,12.2
2023-04-16T09:33:59.776Z,12.5
2023-04-16T09:38:59.805Z,12.5
2023-04-16T09:43:59.830Z,12.6
2023-04-16T09:49:10.428Z,12.7
2023-04-16T09:54:59.782Z,12.9
2023-04-16T09:59:59.790Z,12.8
2023-04-16T10:05:10.074Z,13
2023-04-16T10:10:10.076Z,13.2
2023-04-16T10:15:48.985Z,13.2
2023-04-16T10:20:59.803Z,13.2
2023-04-16T10:26:10.067Z,13
2023-04-16T10:31:10.298Z,13.1
2023-04-16T10:36:59.815Z,13.2
2023-04-16T10:42:10.112Z,13.3
2023-04-16T10:47:59.838Z,13.3
2023-04-16T10:52:59.810Z,13.2
2023-04-16T10:58:10.061Z,13.3
2023-04-16T11:03:10.159Z,13.4
2023-04-16T11:08:10.095Z,13.6
2023-04-16T11:13:10.072Z,13.8
2023-04-16T11:18:10.176Z,14
2023-04-16T11:24:00.049Z,13.8
2023-04-16T11:29:10.220Z,14
2023-04-16T11:34:10.114Z,13.8
2023-04-16T11:39:59.757Z,13.8
2023-04-16T11:44:59.811Z,13.8
2023-04-16T11:49:59.793Z,14
2023-04-16T11:55:10.061Z,14.5
2023-04-16T12:00:10.656Z,14.4
2023-04-16T12:05:10.192Z,14.4
2023-04-16T12:10:59.796Z,14.5
2023-04-16T12:16:00.975Z,14.7
2023-04-16T12:21:10.083Z,14.7
2023-04-16T12:26:59.821Z,15
2023-04-16T12:32:10.132Z,14.1
2023-04-16T12:37:59.813Z,14.1
2023-04-16T12:43:10.112Z,14.3
2023-04-16T12:48:59.800Z,14.4
2023-04-16T12:54:10.097Z,14
2023-04-16T12:59:10.536Z,14.1
2023-04-16T13:04:59.965Z,13.8
2023-04-16T13:09:59.829Z,14
2023-04-16T13:15:10.074Z,13.5
2023-04-16T13:20:10.152Z,13.4
2023-04-16T13:25:59.818Z,13.1
2023-04-16T13:31:10.107Z,13.4
2023-04-16T13:36:10.087Z,13.5
2023-04-16T13:41:10.092Z,13.2
2023-04-16T13:46:59.936Z,12.7
2023-04-16T13:51:59.853Z,12.2
2023-04-16T13:57:10.098Z,12.6
2023-04-16T14:02:10.157Z,12.7
2023-04-16T14:07:59.788Z,13.1
2023-04-16T14:12:59.798Z,12.7
2023-04-16T14:17:59.868Z,12.5
2023-04-16T14:23:10.121Z,12.5
2023-04-16T14:28:59.808Z,12.7
2023-04-16T14:33:59.869Z,12.6
2023-04-16T14:39:10.360Z,12.6
2023-04-16T14:44:10.131Z,12.6
2023-04-16T14:49:12.277Z,12.4
2023-04-16T14:54:59.825Z,12.4
2023-04-16T14:59:59.828Z,12.5
2023-04-16T15:05:10.116Z,12.3
2023-04-16T15:10:10.092Z,12.9
2023-04-16T15:15:59.825Z,13
2023-04-16T15:21:12.413Z,12.9
2023-04-16T15:26:59.823Z,12.6
2023-04-16T15:32:10.119Z,13
2023-04-16T15:37:59.833Z,13
2023-04-16T15:43:10.146Z,12.9
2023-04-16T15:48:10.167Z,12.9
2023-04-16T15:54:10.100Z,12.6
2023-04-16T15:59:10.393Z,12.7
2023-04-16T16:04:59.818Z,12.6
2023-04-16T16:09:59.842Z,13
2023-04-16T16:15:10.167Z,12.8
2023-04-16T16:20:59.837Z,13
2023-04-16T16:26:10.120Z,12.7
2023-04-16T16:31:59.984Z,12.7
2023-04-16T16:37:10.123Z,12.8
2023-04-16T16:42:10.132Z,13
2023-04-16T16:47:59.908Z,13.6
2023-04-16T16:53:10.099Z,14.2
2023-04-16T16:58:10.128Z,14.3
2023-04-16T17:03:59.927Z,14.3
2023-04-16T17:08:59.842Z,14.3
2023-04-16T17:14:10.103Z,14.1
2023-04-16T17:19:10.265Z,13.9
2023-04-16T17:24:59.872Z,13.9
2023-04-16T17:30:10.108Z,13.8
2023-04-16T17:35:59.845Z,13.6
2023-04-16T17:41:10.162Z,13.5
2023-04-16T17:46:20.453Z,13.6
2023-04-16T17:51:59.861Z,13.4
2023-04-16T17:57:10.214Z,13.5
2023-04-16T18:02:10.313Z,13.4
2023-04-16T18:07:10.208Z,13.3
2023-04-16T18:12:59.830Z,13.2
2023-04-16T18:18:10.191Z,13.1
2023-04-16T18:23:59.848Z,13.2
2023-04-16T18:29:10.501Z,13.1
2023-04-16T18:34:59.852Z,13.2
2023-04-16T18:40:10.094Z,13.2
2023-04-16T18:45:10.178Z,13.1
2023-04-16T18:50:59.836Z,13
2023-04-16T18:56:10.143Z,12.9
2023-04-16T19:01:59.901Z,12.8
2023-04-16T19:06:59.859Z,12.7
2023-04-16T19:11:59.865Z,12.6
2023-04-16T19:17:10.153Z,12.6
2023-04-16T19:22:59.946Z,12.7
2023-04-16T19:28:10.129Z,12.8
2023-04-16T19:33:10.163Z,12.8
2023-04-16T19:38:10.931Z,12.6
2023-04-16T19:43:59.843Z,12.6
2023-04-16T19:48:59.863Z,12.6
2023-04-16T19:54:10.136Z,12.5
2023-04-16T19:59:10.524Z,12.4
2023-04-16T20:04:59.850Z,12.4
2023-04-16T20:09:59.933Z,12.4
2023-04-16T20:15:10.173Z,12.4
2023-04-16T20:20:10.233Z,12.4
2023-04-16T20:25:59.871Z,12.3
2023-04-16T20:31:10.191Z,12.3
2023-04-16T20:36:59.845Z,12.3
2023-04-16T20:42:10.159Z,12.2
2023-04-16T20:47:10.192Z,12.2
2023-04-16T20:52:59.868Z,12.2
2023-04-16T20:57:59.865Z,12.2
2023-04-16T21:03:10.263Z,12.1
2023-04-16T21:08:59.864Z,11.9
2023-04-16T21:13:59.864Z,12
2023-04-16T21:19:10.603Z,12.1
2023-04-16T21:24:59.885Z,12
2023-04-16T21:30:10.214Z,12
2023-04-16T21:35:10.624Z,12
2023-04-16T21:40:10.182Z,12
2023-04-16T21:45:59.869Z,12
2023-04-16T21:51:10.184Z,12
2023-04-16T21:56:10.164Z,12.1
2023-04-16T22:01:11.059Z,12
2023-04-16T22:06:59.854Z,12
2023-04-16T22:11:59.862Z,12.1
2023-04-16T22:16:59.928Z,12.1
2023-04-16T22:22:10.155Z,12
2023-04-16T22:27:59.889Z,11.9
2023-04-16T22:33:10.218Z,11.9
2023-04-16T22:38:10.174Z,11.9
2023-04-16T22:43:59.881Z,11.9
2023-04-16T22:49:10.434Z,11.9
2023-04-16T22:54:11.175Z,11.9
2023-04-16T22:59:10.434Z,11.8
2023-04-16T23:04:10.215Z,11.8
2023-04-16T23:09:10.591Z,11.8
2023-04-16T23:14:59.870Z,11.8
2023-04-16T23:19:59.877Z,11.8
2023-04-16T23:25:10.141Z,11.8
2023-04-16T23:30:10.162Z,11.8
2023-04-16T23:35:10.174Z,11.7
2023-04-16T23:41:10.139Z,11.7
2023-04-16T23:46:10.198Z,11.6
2023-04-16T23:51:10.208Z,11.6
2023-04-16T23:56:59.886Z,11.5
